• Join FlightAware (Why Join?)
  • Login
  • US Flag 
01:22PM EST


 

Airport Tracker/Info


-or-


 

Live Flight TrackerFlight Track Log ✈ SWA655 ✈ 09-Apr-2013 ✈ KLAX - KLAS

Flight Track Log - Related Links

Times and Time Zones

All times are in EDT time to prevent confusion due to time zone crossing. See the SWA655 flight status page for this flight to view local times or setup timezone preferences in your user account.

Time Position Orientation Groundspeed Altitude Reporting Facility
EDT Latitude Longitude Course Direction KTS MPH feet Rate Location/Type
06:56PM 33.9500 -118.4667 256° West 173 199 2,100  Level Southern California TRACON
06:57PM 33.9356 -118.5361 256° West 208 239 5,900 3,660 Climbing Los Angeles Center
06:58PM 33.9208 -118.6222 258° West 242 278 9,900 2,880 Climbing Los Angeles Center
06:59PM 33.8497 -118.6378 190° South 326 375 11,900 1,620 Climbing Los Angeles Center
07:00PM 33.8522 -118.5528 88° East 257 296 13,300 1,740 Climbing Los Angeles Center
07:01PM 33.9078 -118.4711 51° Northeast 302 348 15,500 1,980 Climbing Los Angeles Center
07:02PM 33.9556 -118.3944 53° Northeast 317 365 17,800 2,520 Climbing Los Angeles Center
07:03PM 34.0217 -118.2767 56° Northeast 349 402 21,300 2,460 Climbing Los Angeles Center
07:04PM 34.0794 -118.1753 55° Northeast 361 415 23,000 780 Climbing Los Angeles Center
07:05PM 34.1478 -118.0528 56° Northeast 366 421 23,000 300 Level Los Angeles Center
07:06PM 34.2044 -117.9533 55° Northeast 361 415 23,700 1,200 Climbing Los Angeles Center
07:07PM 34.2644 -117.8475 56° Northeast 377 434 25,600 1,560 Climbing Los Angeles Center
07:08PM 34.3250 -117.7381 56° Northeast 390 449 27,000 660 Climbing Los Angeles Center
07:09PM 34.3892 -117.6225 56° Northeast 390 449 27,000  Level Los Angeles Center
07:10PM 34.4486 -117.5131 57° Northeast 391 450 27,000  Level Los Angeles Center
07:11PM 34.5083 -117.4072 56° Northeast 384 442 27,000  Level Los Angeles Center
07:12PM 34.5669 -117.3006 56° Northeast 383 441 27,000  Level Los Angeles Center
07:13PM 34.6375 -117.1714 56° Northeast 384 442 27,000  Level Los Angeles Center
07:14PM 34.6944 -117.0675 56° Northeast 374 430 27,000  Level Los Angeles Center
07:16PM 34.7522 -116.9614 56° Northeast 378 435 27,000  Level Los Angeles Center
07:17PM 34.8114 -116.8569 55° Northeast 377 434 27,000  Level Los Angeles Center
07:18PM 34.8747 -116.7603 51° Northeast 367 422 27,000  Level Los Angeles Center
07:19PM 34.9597 -116.6258 52° Northeast 362 417 27,000 -240 Level Los Angeles Center
07:20PM 35.0197 -116.5306 52° Northeast 358 412 26,600 -1,080 Descending Los Angeles Center
07:21PM 35.0736 -116.4447 52° Northeast 334 384 24,900 -1,320 Descending Los Angeles Center
07:22PM 35.1289 -116.3653 50° Northeast 313 360 24,000 -480 Descending Los Angeles Center
07:23PM 35.1942 -116.2869 44° Northeast 324 373 24,000  Level Los Angeles Center
07:24PM 35.2597 -116.2047 46° Northeast 336 387 24,000 -900 Level Los Angeles Center
07:25PM 35.3367 -116.1064 46° Northeast 335 386 22,200 -1,800 Descending Los Angeles Center
07:26PM 35.3992 -116.0272 46° Northeast 324 373 20,400 -1,860 Descending Los Angeles Center
07:27PM 35.4639 -115.9447 46° Northeast 334 384 18,400 -1,980 Descending Los Angeles Center
07:28PM 35.5314 -115.8594 46° Northeast 348 400 16,400 -2,100 Descending Los Angeles Center
07:29PM 35.5833 -115.7969 44° Northeast 338 389 14,800 -1,860 Descending Los Angeles Center
07:29PM 35.5956 -115.7778 52° Northeast 339 390 14,500 -1,680 Descending Los Angeles Center
07:30PM 35.6458 -115.7164 45° Northeast 325 374 13,100 -1,500 Descending Los Angeles Center
07:30PM 35.6683 -115.6850 49° Northeast 321 369 13,000 -120 Descending Los Angeles Center
07:31PM 35.6689 -115.6217 89° East 286 329 13,000 -240 Level Los Angeles Center
07:31PM 35.6658 -115.5919 97° East 286 329 12,800 -1,140 Descending Los Angeles Center
07:32PM 35.6594 -115.5269 97° East 279 321 11,900 -1,500 Descending Los Angeles Center
07:32PM 35.6564 -115.4969 97° East 279 321 11,300 -1,140 Descending Los Angeles Center
07:33PM 35.6656 -115.4456 78° East 257 296 10,900 -780 Descending Los Angeles Center
07:33PM 35.6767 -115.4169 64° Northeast 259 298 10,500 -1,260 Descending Los Angeles Center
07:34PM 35.7119 -115.3803 40° Northeast 239 275 9,500 -1,200 Descending Los Angeles Center
07:34PM 35.7275 -115.3658 37° Northeast 248 285 9,300 -900 Descending Los Angeles Center
07:35PM 35.7706 -115.3428 23° Northeast 235 270 8,600 -1,020 Descending Los Angeles Center
07:35PM 35.7864 -115.3344 23° Northeast 239 275 8,300 -1,020 Descending Los Angeles Center
07:36PM 35.8228 -115.3150 23° Northeast 225 259 7,700 -1,380 Descending Los Angeles Center
07:36PM 35.8536 -115.2967 26° Northeast 229 264 6,900 -1,260 Descending Los Angeles Center
07:37PM 35.8842 -115.2792 25° Northeast 216 249 6,300 -900 Descending Los Angeles Center
07:37PM 35.9072 -115.2658 25° Northeast 222 255 6,000 -900 Descending Los Angeles Center
07:38PM 35.9381 -115.2481 25° Northeast 209 241 5,400 -780 Descending Los Angeles Center
07:38PM 35.9625 -115.2339 25° Northeast 216 249 5,200 -1,200 Descending Los Angeles Center
07:39PM 35.9917 -115.2172 25° Northeast 207 238 4,200 -1,260 Descending Los Angeles Center
07:40PM 36.0344 -115.1953 23° Northeast 142 163 3,200 -840 Descending Los Angeles Center
07:40PM 36.0450 -115.1872 32° Northeast 110 127 3,000 -720 Descending Los Angeles Center
07:41PM 36.0667 -115.1739 26° Northeast 129 148 2,500 -300 Descending Los Angeles Center
07:42PM 36.0825 -115.1678 17° North 125 144 2,700 -300 Climbing Los Angeles Center
07:43PM 36.1122 -115.1253 49° Northeast 316 364 2,100 -600 Descending Los Angeles Center